Time;durP1;ratioP1;P1;durP2;ratioP2;P2;SDS_P1;SDS_P2;PMS_P1;PMS_P2;Temp;Humidity;BMP_temperature;BMP_pressure;BME280_temperature;BME280_humidity;BME280_pressure;Samples;Min_cycle;Max_cycle;Signal;HPM_P1;HPM_P2
2023/07/08 00:01:37;;;;;;;6.10;3.33;;;18.10;99.90;;;;;;5126640;27;20035;-62
2023/07/08 00:04:04;;;;;;;4.30;3.35;;;18.10;99.90;;;;;;5121049;27;20038;-64
2023/07/08 00:06:30;;;;;;;6.22;3.47;;;18.00;99.90;;;;;;5119233;27;20037;-63
2023/07/08 00:08:56;;;;;;;5.75;3.58;;;18.00;99.90;;;;;;5136450;27;20087;-63
2023/07/08 00:11:22;;;;;;;7.68;3.80;;;18.00;99.90;;;;;;5124839;27;20045;-64
2023/07/08 00:13:48;;;;;;;6.20;3.63;;;18.00;99.90;;;;;;5121131;27;20480;-63
2023/07/08 00:16:18;;;;;;;5.55;3.80;;;17.90;99.90;;;;;;5110165;28;20135;-64
2023/07/08 00:18:44;;;;;;;5.35;3.70;;;17.90;99.90;;;;;;5109501;28;20226;-62
2023/07/08 00:21:15;;;;;;;6.40;3.95;;;17.90;99.90;;;;;;5110530;28;20118;-64
2023/07/08 00:23:47;;;;;;;5.97;3.50;;;17.80;99.90;;;;;;5109288;28;20105;-64
2023/07/08 00:26:33;;;;;;;7.22;3.92;;;17.80;99.90;;;;;;5110700;28;20585;-64
2023/07/08 00:28:59;;;;;;;6.07;4.05;;;17.80;99.90;;;;;;5109451;28;20375;-63
2023/07/08 00:31:25;;;;;;;6.70;3.97;;;17.70;99.90;;;;;;5110264;28;20073;-63
2023/07/08 00:33:55;;;;;;;7.55;3.80;;;17.70;99.90;;;;;;5111591;28;20035;-63
2023/07/08 00:36:22;;;;;;;6.10;3.83;;;17.70;99.90;;;;;;5110642;28;20118;-64
2023/07/08 00:38:47;;;;;;;5.38;3.45;;;17.70;99.90;;;;;;5109027;28;20039;-63
2023/07/08 00:41:34;;;;;;;6.07;3.92;;;17.60;99.90;;;;;;5110180;28;20085;-63
2023/07/08 00:44:01;;;;;;;7.65;3.95;;;17.60;99.90;;;;;;5110324;28;20522;-63
2023/07/08 00:46:29;;;;;;;6.20;3.75;;;17.60;99.90;;;;;;5109640;28;20042;-63
2023/07/08 00:49:28;;;;;;;7.72;3.97;;;17.50;99.90;;;;;;5109900;28;20070;-62
2023/07/08 00:51:54;;;;;;;5.68;4.00;;;17.50;99.90;;;;;;5106343;28;20553;-62
2023/07/08 00:54:20;;;;;;;6.60;3.72;;;17.40;99.90;;;;;;5109756;28;20123;-63
2023/07/08 00:56:52;;;;;;;6.03;4.18;;;17.40;99.90;;;;;;5110940;28;20436;-62
2023/07/08 00:59:25;;;;;;;5.18;3.80;;;17.40;99.90;;;;;;5109870;28;20048;-62
2023/07/08 01:01:52;;;;;;;6.80;4.20;;;17.30;99.90;;;;;;5107248;28;20108;-63
2023/07/08 01:04:25;;;;;;;5.50;3.60;;;17.30;99.90;;;;;;5110912;28;20040;-62
2023/07/08 01:06:59;;;;;;;7.65;4.20;;;17.30;99.90;;;;;;5109427;28;20039;-63
2023/07/08 01:09:30;;;;;;;7.63;4.30;;;17.20;99.90;;;;;;5108569;28;20047;-63
2023/07/08 01:11:58;;;;;;;5.82;3.97;;;17.20;99.90;;;;;;5109025;28;20397;-63
2023/07/08 01:14:31;;;;;;;5.32;4.00;;;17.20;99.90;;;;;;5109588;28;20118;-63
2023/07/08 01:16:57;;;;;;;7.07;4.47;;;17.20;99.90;;;;;;5131515;27;20470;-63
2023/07/08 01:19:32;;;;;;;6.10;3.95;;;17.10;99.90;;;;;;5132499;27;20078;-63
2023/07/08 01:22:00;;;;;;;8.18;4.78;;;17.20;99.90;;;;;;5126415;27;20034;-63
2023/07/08 01:24:29;;;;;;;9.10;4.60;;;17.10;99.90;;;;;;5114312;27;20110;-64
2023/07/08 01:26:55;;;;;;;8.95;4.80;;;17.10;99.90;;;;;;5128762;27;20057;-62
2023/07/08 01:29:21;;;;;;;9.27;4.88;;;17.10;99.90;;;;;;5125663;27;20081;-62
2023/07/08 01:31:48;;;;;;;7.18;4.88;;;17.10;99.90;;;;;;5124307;27;20736;-64
2023/07/08 01:34:18;;;;;;;7.20;5.03;;;17.00;99.90;;;;;;5121065;27;20066;-64
2023/07/08 01:36:49;;;;;;;8.10;4.90;;;17.00;99.90;;;;;;5113808;27;20043;-63
2023/07/08 01:39:19;;;;;;;6.57;5.07;;;17.00;99.90;;;;;;5118079;27;20038;-62
2023/07/08 01:41:45;;;;;;;9.52;4.68;;;16.90;99.90;;;;;;5112445;27;20068;-62
2023/07/08 01:44:26;;;;;;;6.60;5.13;;;16.90;99.90;;;;;;5123753;27;20072;-63
2023/07/08 01:46:54;;;;;;;8.43;5.07;;;16.90;99.90;;;;;;5118386;27;20524;-63
2023/07/08 01:49:20;;;;;;;9.77;5.32;;;16.90;99.90;;;;;;5128436;27;20046;-63
2023/07/08 01:51:48;;;;;;;5.90;4.57;;;16.90;99.90;;;;;;5140991;27;20091;-64
2023/07/08 01:54:13;;;;;;;8.65;5.43;;;16.80;99.90;;;;;;5120992;27;20050;-63
2023/07/08 01:56:39;;;;;;;7.10;4.78;;;16.80;99.90;;;;;;5132445;27;20035;-63
2023/07/08 01:59:05;;;;;;;8.40;5.05;;;16.70;99.90;;;;;;5131456;27;20066;-63
2023/07/08 02:01:30;;;;;;;5.95;4.40;;;16.60;99.90;;;;;;5119345;27;20118;-63
2023/07/08 02:03:56;;;;;;;6.13;4.75;;;16.60;99.90;;;;;;5136131;27;20047;-63
2023/07/08 02:06:22;;;;;;;6.90;4.82;;;16.50;99.90;;;;;;5125879;27;20155;-62
2023/07/08 02:08:47;;;;;;;5.88;4.43;;;16.40;99.90;;;;;;5124054;27;20041;-65
2023/07/08 02:11:13;;;;;;;8.27;5.18;;;16.40;99.90;;;;;;5112453;27;20126;-64
2023/07/08 02:13:38;;;;;;;6.78;4.65;;;16.30;99.90;;;;;;5115986;27;20043;-62
2023/07/08 02:16:07;;;;;;;7.25;4.68;;;16.20;99.90;;;;;;5099704;27;20051;-63
2023/07/08 02:18:33;;;;;;;6.97;5.30;;;16.20;99.90;;;;;;5112280;27;20072;-63
2023/07/08 02:20:59;;;;;;;6.15;4.22;;;16.20;99.90;;;;;;5123940;27;20099;-63
2023/07/08 02:23:26;;;;;;;5.82;4.60;;;16.10;99.90;;;;;;5132962;27;20030;-64
2023/07/08 02:25:53;;;;;;;7.03;5.05;;;16.00;99.90;;;;;;5146475;27;20031;-63
2023/07/08 02:28:18;;;;;;;6.07;4.40;;;16.00;99.90;;;;;;5122066;27;20038;-63
2023/07/08 02:30:46;;;;;;;6.50;4.88;;;16.00;99.90;;;;;;5112255;27;20099;-63
2023/07/08 02:33:12;;;;;;;6.00;4.35;;;16.00;99.90;;;;;;5116250;27;20068;-62
2023/07/08 02:35:38;;;;;;;6.95;4.75;;;16.00;99.90;;;;;;5133935;27;20039;-62
2023/07/08 02:38:04;;;;;;;8.00;4.63;;;15.90;99.90;;;;;;5119716;27;20478;-63
2023/07/08 02:40:30;;;;;;;7.57;5.15;;;15.90;99.90;;;;;;5115715;27;20072;-64
2023/07/08 02:42:55;;;;;;;6.85;5.20;;;15.90;99.90;;;;;;5128613;27;20046;-63
2023/07/08 02:45:21;;;;;;;5.40;4.15;;;15.80;99.90;;;;;;5135974;27;20038;-64
2023/07/08 02:47:47;;;;;;;5.90;4.65;;;15.80;99.90;;;;;;5150884;27;20027;-63
2023/07/08 02:50:13;;;;;;;6.95;5.53;;;15.80;99.90;;;;;;5117484;27;20470;-62
2023/07/08 02:52:38;;;;;;;6.00;4.63;;;15.80;99.90;;;;;;5123383;27;20039;-63
2023/07/08 02:55:05;;;;;;;9.20;5.22;;;15.80;99.90;;;;;;5127421;27;20541;-63
2023/07/08 02:57:31;;;;;;;8.85;4.90;;;15.80;99.90;;;;;;5131407;27;20181;-63
2023/07/08 02:59:56;;;;;;;6.40;4.75;;;15.80;99.90;;;;;;5115529;27;20114;-64
2023/07/08 03:02:22;;;;;;;6.93;5.05;;;15.80;99.90;;;;;;5130729;27;20050;-63
2023/07/08 03:04:49;;;;;;;6.32;4.90;;;15.80;99.90;;;;;;5136197;27;20545;-64
2023/07/08 03:07:16;;;;;;;6.20;4.85;;;15.80;99.90;;;;;;5119408;27;20039;-63
2023/07/08 03:09:42;;;;;;;9.43;5.22;;;15.80;99.90;;;;;;5127809;27;20066;-64
2023/07/08 03:12:09;;;;;;;6.60;5.40;;;15.80;99.90;;;;;;5123699;27;20441;-63
2023/07/08 03:14:36;;;;;;;7.78;5.32;;;15.80;99.90;;;;;;5124860;27;20039;-63
2023/07/08 03:17:02;;;;;;;7.38;5.45;;;15.80;99.90;;;;;;5115712;27;20047;-63
2023/07/08 03:19:27;;;;;;;6.22;4.80;;;15.70;99.90;;;;;;5122034;27;20039;-62
2023/07/08 03:21:53;;;;;;;8.52;5.55;;;15.70;99.90;;;;;;5134180;27;20035;-64
2023/07/08 03:24:19;;;;;;;9.45;5.30;;;15.70;99.90;;;;;;5128100;27;20060;-64
2023/07/08 03:26:45;;;;;;;9.57;6.03;;;15.70;99.90;;;;;;5127103;27;20062;-62
2023/07/08 03:29:15;;;;;;;5.72;5.13;;;15.70;99.90;;;;;;5128467;27;20726;-63
2023/07/08 03:31:41;;;;;;;9.20;5.68;;;15.70;99.90;;;;;;5124293;27;20070;-62
2023/07/08 03:34:12;;;;;;;10.18;6.10;;;15.60;99.90;;;;;;5119491;27;20491;-64
2023/07/08 03:36:50;;;;;;;9.05;5.70;;;15.60;99.90;;;;;;5123525;27;20038;-63
2023/07/08 03:39:20;;;;;;;7.60;5.72;;;15.60;99.90;;;;;;5126602;27;20416;-64
2023/07/08 03:41:47;;;;;;;8.82;4.88;;;15.70;99.90;;;;;;5133044;27;20042;-62
2023/07/08 03:44:13;;;;;;;7.32;5.90;;;15.70;99.90;;;;;;5114482;27;20063;-62
2023/07/08 03:46:42;;;;;;;9.55;5.65;;;15.70;99.90;;;;;;5128611;27;20038;-64
2023/07/08 03:49:09;;;;;;;8.65;5.70;;;15.70;99.90;;;;;;5150092;27;20041;-63
2023/07/08 03:51:38;;;;;;;8.05;5.47;;;15.70;99.90;;;;;;5142036;27;20477;-63
2023/07/08 03:54:06;;;;;;;8.77;5.35;;;15.70;99.90;;;;;;5149807;27;20057;-63
2023/07/08 03:56:32;;;;;;;8.63;5.40;;;15.80;99.90;;;;;;5128449;27;20046;-63
2023/07/08 03:58:58;;;;;;;8.63;5.18;;;15.80;99.90;;;;;;5130507;27;20221;-63
2023/07/08 04:01:25;;;;;;;7.10;5.30;;;15.80;99.90;;;;;;5137343;27;20125;-62
2023/07/08 04:03:53;;;;;;;8.30;5.60;;;15.90;99.90;;;;;;5134922;27;20556;-63
2023/07/08 04:06:19;;;;;;;8.65;5.47;;;15.90;99.90;;;;;;5120529;27;20046;-63
2023/07/08 04:08:45;;;;;;;6.43;5.18;;;15.90;99.90;;;;;;5124926;27;20131;-64
2023/07/08 04:11:22;;;;;;;8.02;5.40;;;16.00;99.90;;;;;;5124732;27;20121;-64
2023/07/08 04:13:48;;;;;;;7.20;5.22;;;16.00;99.90;;;;;;5130906;27;20131;-63
2023/07/08 04:16:24;;;;;;;8.50;5.25;;;16.00;99.90;;;;;;5129954;27;20138;-63
2023/07/08 04:18:53;;;;;;;9.00;5.10;;;16.10;99.90;;;;;;5103598;27;20047;-63
2023/07/08 04:21:19;;;;;;;5.95;4.75;;;16.10;99.90;;;;;;5115096;27;20039;-65
2023/07/08 04:23:45;;;;;;;7.43;5.28;;;16.20;99.90;;;;;;5135373;27;20034;-63
2023/07/08 04:26:11;;;;;;;6.05;5.10;;;16.20;99.90;;;;;;5132258;27;20039;-63
2023/07/08 04:28:37;;;;;;;7.10;5.07;;;16.30;99.90;;;;;;5131232;27;20485;-64
2023/07/08 04:31:03;;;;;;;10.23;5.68;;;16.30;99.90;;;;;;5120318;27;20111;-64
2023/07/08 04:33:29;;;;;;;7.70;5.40;;;16.40;99.90;;;;;;5122619;27;20039;-63
2023/07/08 04:35:55;;;;;;;6.97;4.95;;;16.50;99.90;;;;;;5150025;27;20041;-62
2023/07/08 04:38:24;;;;;;;6.28;5.18;;;16.50;99.90;;;;;;5127637;27;20608;-63
2023/07/08 04:40:51;;;;;;;7.13;5.22;;;16.60;99.90;;;;;;5151156;27;20043;-62
2023/07/08 04:43:17;;;;;;;7.90;4.95;;;16.60;99.90;;;;;;5134242;27;20550;-63
2023/07/08 04:45:45;;;;;;;6.43;5.00;;;16.70;99.90;;;;;;5118231;27;20711;-64
2023/07/08 04:48:15;;;;;;;6.57;5.15;;;16.70;99.90;;;;;;5126253;27;20067;-64
2023/07/08 04:50:42;;;;;;;8.55;5.32;;;16.80;99.90;;;;;;5126001;27;20031;-63
2023/07/08 04:53:08;;;;;;;6.78;4.78;;;16.80;99.90;;;;;;5128084;27;20078;-62
2023/07/08 04:55:42;;;;;;;6.68;5.32;;;16.90;99.90;;;;;;5136772;27;20039;-63
2023/07/08 04:58:08;;;;;;;6.85;4.85;;;16.90;99.90;;;;;;5123576;27;20043;-62
2023/07/08 05:00:33;;;;;;;6.13;4.63;;;17.00;99.90;;;;;;5121294;27;20043;-63
2023/07/08 05:02:59;;;;;;;6.20;4.97;;;17.10;99.90;;;;;;5134719;27;20096;-63
2023/07/08 05:05:25;;;;;;;8.98;5.10;;;17.20;99.90;;;;;;5126838;27;20035;-64
2023/07/08 05:07:51;;;;;;;8.20;4.95;;;17.20;99.90;;;;;;5126927;27;20038;-63
2023/07/08 05:10:17;;;;;;;8.93;4.68;;;17.30;99.90;;;;;;5148801;27;20068;-63
2023/07/08 05:12:43;;;;;;;8.05;5.03;;;17.30;99.90;;;;;;5144307;27;20034;-62
2023/07/08 05:15:10;;;;;;;6.30;4.72;;;17.40;99.90;;;;;;5120726;27;20405;-63
2023/07/08 05:17:37;;;;;;;6.70;4.95;;;17.50;99.90;;;;;;5135964;27;20063;-64
2023/07/08 05:20:04;;;;;;;7.85;4.80;;;17.50;99.90;;;;;;5119195;27;20388;-64
2023/07/08 05:22:29;;;;;;;6.35;4.82;;;17.60;99.90;;;;;;5127069;27;20066;-63
2023/07/08 05:24:55;;;;;;;7.38;4.70;;;17.70;99.90;;;;;;5139385;27;20078;-63
2023/07/08 05:27:24;;;;;;;8.75;4.88;;;17.80;99.90;;;;;;5135247;27;20466;-63
2023/07/08 05:29:50;;;;;;;7.15;4.63;;;17.80;99.90;;;;;;5132304;27;20046;-63
2023/07/08 05:32:16;;;;;;;9.27;4.68;;;17.90;99.90;;;;;;5121838;27;20038;-63
2023/07/08 05:34:43;;;;;;;7.90;5.00;;;18.00;99.90;;;;;;5132436;27;20409;-62
2023/07/08 05:37:09;;;;;;;8.45;4.88;;;18.10;99.90;;;;;;5147493;27;20076;-64
2023/07/08 05:39:35;;;;;;;6.55;4.35;;;18.30;99.90;;;;;;5112347;27;20043;-65
2023/07/08 05:42:00;;;;;;;6.85;4.15;;;18.40;99.90;;;;;;5111510;27;20058;-63
2023/07/08 05:44:26;;;;;;;7.80;4.55;;;18.50;99.90;;;;;;5118744;27;20473;-64
2023/07/08 05:46:52;;;;;;;6.07;4.53;;;18.60;99.90;;;;;;5115359;27;20047;-63
2023/07/08 05:49:17;;;;;;;6.90;4.30;;;18.70;99.90;;;;;;5116829;27;20067;-64
2023/07/08 05:51:44;;;;;;;5.63;4.32;;;18.80;99.90;;;;;;5120495;27;20043;-63
2023/07/08 05:54:10;;;;;;;4.60;4.00;;;18.90;99.90;;;;;;5122870;27;20046;-64
2023/07/08 05:56:36;;;;;;;7.75;3.92;;;19.00;99.90;;;;;;5115237;27;20039;-63
2023/07/08 05:59:02;;;;;;;5.55;4.25;;;19.10;99.90;;;;;;5126935;27;20371;-65
2023/07/08 06:01:28;;;;;;;6.05;4.30;;;19.10;99.90;;;;;;5125238;27;20123;-64
2023/07/08 06:03:57;;;;;;;5.45;4.10;;;19.20;99.90;;;;;;5118043;27;20511;-63
2023/07/08 06:06:23;;;;;;;5.22;3.92;;;19.30;99.90;;;;;;5131948;27;20043;-63
2023/07/08 06:08:49;;;;;;;8.73;4.65;;;19.50;99.90;;;;;;5134175;27;20046;-63
2023/07/08 06:11:15;;;;;;;5.97;4.00;;;19.60;99.90;;;;;;5124497;27;20047;-64
2023/07/08 06:13:40;;;;;;;8.07;4.70;;;19.60;99.90;;;;;;5126105;27;20047;-65
2023/07/08 06:16:06;;;;;;;6.22;4.20;;;19.80;99.90;;;;;;5148508;27;20042;-63
2023/07/08 06:18:32;;;;;;;5.03;4.15;;;19.90;99.90;;;;;;5125214;27;20039;-64
2023/07/08 06:20:58;;;;;;;4.88;4.03;;;20.00;99.90;;;;;;5126501;27;20121;-63
2023/07/08 06:23:24;;;;;;;7.93;3.70;;;20.10;99.90;;;;;;5129556;27;20039;-63
2023/07/08 06:25:51;;;;;;;7.75;4.00;;;20.20;99.90;;;;;;5135495;27;20117;-64
2023/07/08 06:28:17;;;;;;;5.25;3.80;;;20.30;99.90;;;;;;5128002;27;20082;-63
2023/07/08 06:30:43;;;;;;;7.32;3.20;;;20.50;99.90;;;;;;5143211;27;20027;-63
2023/07/08 06:33:11;;;;;;;8.73;3.78;;;20.60;99.90;;;;;;5118800;27;20039;-63
2023/07/08 06:35:37;;;;;;;5.72;4.20;;;20.80;99.90;;;;;;5124979;27;20113;-64
2023/07/08 06:38:02;;;;;;;6.93;3.53;;;20.90;99.90;;;;;;5134849;27;20045;-64
2023/07/08 06:40:28;;;;;;;5.43;3.75;;;21.00;99.90;;;;;;5133258;27;20035;-62
2023/07/08 06:42:54;;;;;;;5.05;3.33;;;21.20;99.90;;;;;;5131748;27;20035;-64
2023/07/08 06:45:19;;;;;;;4.85;3.55;;;21.30;99.90;;;;;;5123522;27;20031;-64
2023/07/08 06:47:46;;;;;;;7.45;3.60;;;21.40;99.90;;;;;;5121274;27;20039;-62
2023/07/08 06:50:12;;;;;;;6.03;3.42;;;21.50;99.90;;;;;;5128566;27;20095;-62
2023/07/08 06:52:37;;;;;;;6.05;3.45;;;21.60;99.90;;;;;;5125684;27;20043;-64
2023/07/08 06:55:07;;;;;;;4.90;3.47;;;21.70;99.70;;;;;;5130882;27;20119;-65
2023/07/08 06:57:33;;;;;;;4.22;3.00;;;21.90;99.60;;;;;;5129930;27;20046;-64
2023/07/08 06:59:58;;;;;;;5.13;3.53;;;21.90;99.00;;;;;;5139777;27;20522;-63
2023/07/08 07:02:24;;;;;;;5.18;3.25;;;22.10;99.10;;;;;;5132509;27;20038;-64
2023/07/08 07:04:50;;;;;;;4.72;3.38;;;22.20;99.00;;;;;;5125447;27;20035;-63
2023/07/08 07:07:15;;;;;;;5.97;3.38;;;22.30;98.70;;;;;;5119850;27;20031;-63
2023/07/08 07:09:41;;;;;;;7.00;3.17;;;22.40;98.70;;;;;;5130769;27;20051;-64
2023/07/08 07:12:07;;;;;;;7.25;2.95;;;22.50;98.00;;;;;;5120289;27;20042;-64
2023/07/08 07:14:33;;;;;;;3.72;3.17;;;22.60;98.10;;;;;;5120165;27;20035;-64
2023/07/08 07:16:59;;;;;;;5.68;3.10;;;22.70;98.00;;;;;;5119541;27;20080;-63
2023/07/08 07:19:25;;;;;;;5.07;3.13;;;22.70;97.20;;;;;;5117923;27;20043;-64
2023/07/08 07:21:51;;;;;;;6.07;2.78;;;22.70;96.80;;;;;;5130256;27;20046;-63
2023/07/08 07:24:17;;;;;;;5.13;3.40;;;22.80;97.00;;;;;;5128582;27;20046;-65
2023/07/08 07:26:42;;;;;;;5.30;3.10;;;23.00;97.00;;;;;;5142730;27;20027;-64
2023/07/08 07:29:08;;;;;;;4.10;3.08;;;23.10;96.80;;;;;;5128788;27;20054;-64
2023/07/08 07:31:34;;;;;;;4.03;2.83;;;23.20;96.30;;;;;;5127008;27;20485;-64
2023/07/08 07:34:00;;;;;;;5.13;3.05;;;23.30;96.40;;;;;;5153169;27;20049;-64
2023/07/08 07:36:27;;;;;;;6.65;2.80;;;23.50;96.00;;;;;;5129652;27;20053;-64
2023/07/08 07:38:52;;;;;;;4.65;3.15;;;23.60;95.60;;;;;;5131694;27;20039;-64
2023/07/08 07:41:18;;;;;;;5.40;3.55;;;23.70;95.30;;;;;;5121125;27;20104;-65
2023/07/08 07:43:43;;;;;;;7.18;2.90;;;23.70;95.20;;;;;;5113797;27;20050;-64
2023/07/08 07:46:10;;;;;;;3.85;2.72;;;23.80;95.20;;;;;;5123170;27;20045;-65
2023/07/08 07:48:36;;;;;;;6.13;3.05;;;23.90;95.10;;;;;;5129314;27;20117;-64
2023/07/08 07:51:04;;;;;;;4.70;3.13;;;24.00;95.10;;;;;;5134371;27;20035;-65
2023/07/08 07:53:30;;;;;;;6.03;2.90;;;24.10;94.50;;;;;;5134444;27;20091;-65
2023/07/08 07:55:58;;;;;;;3.35;3.03;;;24.20;94.80;;;;;;5140969;27;20031;-64
2023/07/08 07:58:23;;;;;;;3.67;2.80;;;24.40;94.70;;;;;;5146655;27;20119;-65
2023/07/08 08:00:49;;;;;;;8.95;2.80;;;24.50;94.40;;;;;;5130499;27;20034;-65
2023/07/08 08:03:16;;;;;;;4.13;2.85;;;24.70;94.90;;;;;;5123636;27;20489;-64
2023/07/08 08:05:42;;;;;;;5.85;2.95;;;24.90;94.80;;;;;;5102575;27;20087;-64
2023/07/08 08:08:08;;;;;;;7.35;3.00;;;25.00;94.20;;;;;;5116124;27;20031;-66
2023/07/08 08:10:35;;;;;;;3.38;2.75;;;25.10;94.40;;;;;;5125798;27;20042;-66
2023/07/08 08:13:00;;;;;;;5.10;2.92;;;25.20;94.10;;;;;;5118711;27;20031;-63
2023/07/08 08:15:26;;;;;;;4.07;2.80;;;25.20;93.30;;;;;;5113407;27;20073;-66
2023/07/08 08:17:52;;;;;;;4.65;2.90;;;25.30;93.40;;;;;;5123822;27;20047;-65
2023/07/08 08:20:19;;;;;;;6.15;2.83;;;25.30;92.50;;;;;;5113398;27;20047;-65
2023/07/08 08:22:45;;;;;;;5.75;2.72;;;25.50;92.90;;;;;;5124273;27;20076;-65
2023/07/08 08:25:10;;;;;;;3.22;2.65;;;25.50;91.80;;;;;;5123906;27;20114;-65
2023/07/08 08:27:36;;;;;;;3.95;2.85;;;25.70;92.10;;;;;;5121428;27;20474;-65
2023/07/08 08:30:04;;;;;;;4.00;2.78;;;25.70;91.40;;;;;;5126477;27;20035;-65
2023/07/08 08:32:30;;;;;;;5.32;2.80;;;25.80;91.00;;;;;;5115151;27;20071;-65
2023/07/08 08:34:55;;;;;;;3.65;2.65;;;26.00;91.50;;;;;;5129576;27;20034;-66
2023/07/08 08:37:21;;;;;;;5.53;3.05;;;26.10;91.30;;;;;;5133562;27;20050;-65
2023/07/08 08:39:47;;;;;;;5.05;2.80;;;26.30;90.90;;;;;;5130515;27;20474;-65
2023/07/08 08:42:39;;;;;;;5.55;3.05;;;26.30;90.40;;;;;;5113182;27;20042;-65
2023/07/08 08:45:07;;;;;;;5.60;2.70;;;26.30;90.40;;;;;;5127532;27;20035;-65
2023/07/08 08:47:39;;;;;;;5.00;2.92;;;26.30;90.60;;;;;;5125846;27;20052;-66
2023/07/08 08:50:24;;;;;;;5.05;3.15;;;26.30;90.00;;;;;;5130710;27;20038;-65
2023/07/08 08:52:50;;;;;;;6.50;3.40;;;26.30;90.00;;;;;;5118072;27;20496;-66
2023/07/08 08:55:16;;;;;;;6.18;3.30;;;26.50;90.50;;;;;;5117936;27;20050;-65
2023/07/08 08:57:49;;;;;;;4.72;3.35;;;26.50;89.60;;;;;;5131074;27;20030;-66
2023/07/08 09:00:24;;;;;;;4.40;2.83;;;26.60;88.80;;;;;;5123146;27;20034;-65
2023/07/08 09:02:58;;;;;;;4.72;2.85;;;26.70;88.90;;;;;;5114173;27;20038;-65
2023/07/08 09:05:25;;;;;;;6.03;3.28;;;26.80;89.70;;;;;;5118569;27;20396;-64
2023/07/08 09:08:05;;;;;;;3.67;2.90;;;27.00;88.50;;;;;;5128508;27;20070;-65
2023/07/08 09:10:45;;;;;;;4.55;2.88;;;27.10;88.80;;;;;;5131004;27;20041;-66
2023/07/08 09:13:33;;;;;;;7.45;2.72;;;27.10;88.70;;;;;;5147196;27;20385;-65
2023/07/08 09:16:24;;;;;;;4.70;3.17;;;27.30;89.00;;;;;;5114891;27;20055;-65
2023/07/08 09:18:52;;;;;;;6.50;3.08;;;27.50;87.80;;;;;;5054383;28;20507;-65
2023/07/08 09:21:23;;;;;;;5.25;3.10;;;27.50;87.60;;;;;;5041185;28;20040;-65
2023/07/08 09:23:52;;;;;;;4.22;2.72;;;27.60;86.20;;;;;;5042535;28;20119;-65
2023/07/08 09:26:22;;;;;;;4.47;2.85;;;27.70;86.60;;;;;;5062116;28;20037;-65
2023/07/08 09:28:48;;;;;;;6.53;2.80;;;27.80;87.20;;;;;;5041037;28;20052;-65
2023/07/08 09:31:25;;;;;;;6.05;3.00;;;27.90;87.50;;;;;;5047934;28;20399;-64
2023/07/08 09:34:11;;;;;;;5.45;3.28;;;28.10;87.70;;;;;;5040756;28;20120;-65
2023/07/08 09:36:43;;;;;;;6.55;3.17;;;28.20;86.70;;;;;;5049247;28;20056;-65
2023/07/08 09:39:14;;;;;;;3.70;2.92;;;28.20;86.00;;;;;;5047801;28;20036;-65
2023/07/08 09:41:41;;;;;;;8.27;3.33;;;28.40;87.00;;;;;;5042546;28;20033;-66
2023/07/08 09:44:23;;;;;;;4.35;3.28;;;28.40;85.40;;;;;;5048943;28;20066;-66
2023/07/08 09:46:49;;;;;;;5.88;3.25;;;28.50;85.30;;;;;;5053260;28;20041;-66
2023/07/08 09:49:22;;;;;;;5.63;3.75;;;28.60;84.70;;;;;;5042980;28;20056;-65
2023/07/08 09:51:50;;;;;;;3.40;3.03;;;28.80;83.70;;;;;;5044881;28;20066;-66
2023/07/08 09:54:17;;;;;;;5.75;3.30;;;28.80;84.30;;;;;;5025696;28;20135;-66
2023/07/08 09:56:44;;;;;;;5.53;3.17;;;28.90;83.10;;;;;;5117858;27;20050;-65
2023/07/08 09:59:14;;;;;;;5.63;2.95;;;28.90;82.80;;;;;;5119848;27;20438;-65
2023/07/08 10:01:42;;;;;;;4.85;2.78;;;29.00;83.00;;;;;;5101426;27;20074;-66
2023/07/08 10:04:08;;;;;;;4.55;3.10;;;29.10;82.20;;;;;;5129734;27;20038;-66
2023/07/08 10:06:35;;;;;;;4.80;3.30;;;29.20;81.70;;;;;;5127767;27;20065;-67
2023/07/08 10:09:04;;;;;;;4.63;2.97;;;29.20;80.70;;;;;;5136790;27;20039;-65
2023/07/08 10:11:36;;;;;;;5.85;2.92;;;29.30;80.80;;;;;;5117487;27;20069;-66
2023/07/08 10:14:07;;;;;;;3.30;2.83;;;29.50;80.70;;;;;;5125505;27;20057;-65
2023/07/08 10:16:33;;;;;;;4.67;3.30;;;29.50;80.40;;;;;;5111679;27;20050;-65
2023/07/08 10:19:00;;;;;;;4.10;3.08;;;29.60;80.80;;;;;;5119137;28;20339;-66
2023/07/08 10:21:36;;;;;;;6.38;2.92;;;29.70;81.20;;;;;;5120548;27;20402;-66
2023/07/08 10:24:39;;;;;;;4.65;2.95;;;29.80;81.20;;;;;;5116420;27;20039;-67
2023/07/08 10:27:36;;;;;;;4.90;2.80;;;30.00;80.10;;;;;;5140080;27;20035;-66
2023/07/08 10:30:24;;;;;;;5.63;3.30;;;30.20;80.30;;;;;;5127948;27;20047;-65
2023/07/08 10:33:17;;;;;;;5.32;3.08;;;30.30;77.80;;;;;;5123712;27;20137;-67
2023/07/08 10:36:21;;;;;;;5.93;2.65;;;30.30;78.50;;;;;;5119567;27;20093;-66
2023/07/08 10:39:03;;;;;;;5.60;2.88;;;30.60;81.20;;;;;;5128444;27;20038;-65
2023/07/08 10:41:44;;;;;;;3.45;3.00;;;30.70;78.60;;;;;;5124895;27;20035;-66
2023/07/08 10:44:31;;;;;;;5.68;2.88;;;30.90;78.30;;;;;;5129482;27;20081;-67
2023/07/08 10:47:10;;;;;;;4.55;2.95;;;31.00;78.30;;;;;;5122768;27;20441;-66
2023/07/08 10:50:08;;;;;;;4.13;3.03;;;31.00;75.50;;;;;;5121735;27;20112;-66
2023/07/08 10:52:45;;;;;;;3.85;2.70;;;31.00;73.60;;;;;;5048732;28;20091;-65
2023/07/08 10:55:29;;;;;;;5.68;2.83;;;31.10;74.80;;;;;;5049552;28;20037;-65
2023/07/08 10:58:36;;;;;;;3.88;3.10;;;31.20;74.70;;;;;;5015580;28;20151;-67
2023/07/08 11:01:10;;;;;;;6.05;3.00;;;31.20;73.40;;;;;;5032552;28;20111;-66
2023/07/08 11:04:07;;;;;;;6.10;2.88;;;31.30;72.50;;;;;;5050444;28;20052;-66
2023/07/08 11:06:47;;;;;;;5.68;3.00;;;31.20;72.10;;;;;;5050506;28;20087;-66
2023/07/08 11:09:29;;;;;;;5.50;3.20;;;31.20;72.50;;;;;;5031952;28;20087;-66
2023/07/08 11:12:01;;;;;;;6.40;3.38;;;31.20;71.20;;;;;;5033153;28;20047;-66
2023/07/08 11:14:51;;;;;;;4.28;3.00;;;31.30;72.20;;;;;;5033096;28;20053;-66
2023/07/08 11:17:32;;;;;;;3.95;3.25;;;31.40;72.10;;;;;;5025852;28;20057;-66
2023/07/08 11:20:13;;;;;;;;;;;31.40;71.50;;;;;;5050219;28;20053;-65
2023/07/08 11:22:49;;;;;;;4.03;3.38;;;31.40;69.70;;;;;;5016924;28;19917;-66
2023/07/08 11:25:19;;;;;;;3.80;3.25;;;31.40;70.50;;;;;;5014371;28;20051;-66
2023/07/08 11:27:48;;;;;;;5.78;3.22;;;31.50;70.20;;;;;;5033021;28;20041;-68
2023/07/08 11:30:19;;;;;;;5.50;2.90;;;31.50;70.00;;;;;;5113011;27;20043;-65
2023/07/08 11:32:51;;;;;;;6.22;3.30;;;31.60;69.70;;;;;;5122071;27;20091;-66
2023/07/08 11:35:22;;;;;;;4.45;3.03;;;31.60;68.90;;;;;;5116269;27;20039;-66
2023/07/08 11:37:49;;;;;;;5.18;3.65;;;31.70;69.50;;;;;;5129275;27;20043;-66
2023/07/08 11:40:21;;;;;;;4.03;3.20;;;31.60;69.30;;;;;;5147948;27;20057;-67
2023/07/08 11:42:52;;;;;;;7.18;3.22;;;31.70;68.50;;;;;;5123604;27;20060;-66
2023/07/08 11:45:18;;;;;;;;;;;31.60;69.40;;;;;;5121063;27;20054;-66
2023/07/08 11:47:48;;;;;;;6.45;3.85;;;31.60;71.90;;;;;;5124614;27;19919;-68
2023/07/08 11:50:25;;;;;;;3.55;3.25;;;31.70;70.60;;;;;;5129002;27;20111;-66
2023/07/08 11:52:59;;;;;;;5.55;3.45;;;31.60;69.50;;;;;;5127428;27;20042;-66
2023/07/08 11:55:37;;;;;;;8.25;3.58;;;31.60;69.50;;;;;;5126570;27;20589;-65
2023/07/08 11:58:22;;;;;;;5.53;3.45;;;31.50;69.40;;;;;;5116082;27;20464;-66
2023/07/08 12:01:10;;;;;;;7.45;3.60;;;31.40;69.50;;;;;;5110575;27;20736;-66
2023/07/08 12:03:48;;;;;;;4.15;3.58;;;31.40;69.10;;;;;;5116582;27;20068;-67
2023/07/08 12:06:26;;;;;;;6.13;3.78;;;31.40;69.30;;;;;;5123038;27;20496;-67
2023/07/08 12:08:57;;;;;;;4.00;3.50;;;31.30;69.30;;;;;;5128020;27;20081;-68
2023/07/08 12:11:44;;;;;;;5.13;3.75;;;31.30;68.50;;;;;;5129041;27;20035;-67
2023/07/08 12:14:10;;;;;;;6.53;4.00;;;31.20;68.70;;;;;;5120841;27;20050;-68
2023/07/08 12:16:36;;;;;;;5.88;4.13;;;31.20;68.40;;;;;;5119253;27;20131;-66
2023/07/08 12:19:05;;;;;;;5.50;4.28;;;31.10;68.20;;;;;;5121012;27;20479;-67
2023/07/08 12:21:34;;;;;;;8.23;3.70;;;31.00;68.10;;;;;;5120962;27;20049;-68
2023/07/08 12:24:05;;;;;;;4.75;3.95;;;31.00;69.00;;;;;;5119303;27;20756;-68
2023/07/08 12:26:32;;;;;;;6.43;4.25;;;31.00;68.60;;;;;;5134012;27;20042;-66
2023/07/08 12:28:57;;;;;;;5.55;4.10;;;31.00;68.60;;;;;;5146114;27;20050;-67
2023/07/08 12:31:24;;;;;;;7.00;4.43;;;31.00;69.40;;;;;;5124451;27;20042;-67
2023/07/08 12:33:50;;;;;;;4.82;3.75;;;31.00;67.80;;;;;;5123398;27;20039;-67
2023/07/08 12:36:20;;;;;;;7.00;3.95;;;31.00;68.10;;;;;;5120077;27;20416;-69
2023/07/08 12:38:47;;;;;;;7.65;4.47;;;31.10;68.90;;;;;;5121438;27;20047;-67
2023/07/08 12:41:21;;;;;;;6.10;4.13;;;31.20;69.00;;;;;;5119668;27;20087;-67
2023/07/08 12:43:47;;;;;;;4.10;3.70;;;31.20;67.90;;;;;;5122742;27;20125;-67
2023/07/08 12:46:17;;;;;;;6.50;3.70;;;31.20;68.40;;;;;;5119528;27;20033;-67
2023/07/08 12:48:43;;;;;;;5.07;4.10;;;31.10;68.20;;;;;;5121677;27;20117;-67
2023/07/08 12:51:17;;;;;;;4.45;4.05;;;31.10;67.70;;;;;;5120496;27;20121;-67
2023/07/08 12:53:44;;;;;;;5.03;4.13;;;31.10;66.90;;;;;;5123452;27;20042;-67
2023/07/08 12:56:11;;;;;;;5.72;4.28;;;31.10;67.40;;;;;;5120776;27;20167;-67
2023/07/08 12:58:43;;;;;;;6.30;4.25;;;31.10;67.40;;;;;;5141135;27;20042;-67
2023/07/08 13:01:17;;;;;;;4.85;4.20;;;31.00;66.30;;;;;;5117487;27;20058;-68